sensor_id;sensor_type;location;lat;lon;timestamp;P1;durP1;ratioP1;P2;durP2;ratioP2
20118;SDS011;10220;42.716;23.306;2023-04-24T00:02:01;3.38;;;2.63;;
20118;SDS011;10220;42.716;23.306;2023-04-24T00:04:26;3.63;;;2.45;;
20118;SDS011;10220;42.716;23.306;2023-04-24T00:06:52;3.00;;;2.30;;
20118;SDS011;10220;42.716;23.306;2023-04-24T00:09:21;3.50;;;2.22;;
20118;SDS011;10220;42.716;23.306;2023-04-24T00:11:47;2.78;;;2.00;;
20118;SDS011;10220;42.716;23.306;2023-04-24T00:14:13;2.78;;;2.30;;
20118;SDS011;10220;42.716;23.306;2023-04-24T00:16:38;2.80;;;2.50;;
20118;SDS011;10220;42.716;23.306;2023-04-24T00:19:04;3.92;;;2.58;;
20118;SDS011;10220;42.716;23.306;2023-04-24T00:21:31;2.92;;;1.67;;
20118;SDS011;10220;42.716;23.306;2023-04-24T00:23:57;14.85;;;2.35;;
20118;SDS011;10220;42.716;23.306;2023-04-24T00:26:23;2.80;;;2.35;;
20118;SDS011;10220;42.716;23.306;2023-04-24T00:28:48;2.95;;;2.20;;
20118;SDS011;10220;42.716;23.306;2023-04-24T00:31:14;4.35;;;2.30;;
20118;SDS011;10220;42.716;23.306;2023-04-24T00:33:39;3.90;;;2.42;;
20118;SDS011;10220;42.716;23.306;2023-04-24T00:36:05;4.15;;;1.75;;
20118;SDS011;10220;42.716;23.306;2023-04-24T00:38:31;3.40;;;2.42;;
20118;SDS011;10220;42.716;23.306;2023-04-24T00:40:56;2.08;;;1.88;;
20118;SDS011;10220;42.716;23.306;2023-04-24T00:43:21;3.78;;;2.38;;
20118;SDS011;10220;42.716;23.306;2023-04-24T00:45:47;3.40;;;2.10;;
20118;SDS011;10220;42.716;23.306;2023-04-24T00:48:13;2.42;;;2.17;;
20118;SDS011;10220;42.716;23.306;2023-04-24T00:50:39;3.17;;;2.40;;
20118;SDS011;10220;42.716;23.306;2023-04-24T00:53:05;3.40;;;2.15;;
20118;SDS011;10220;42.716;23.306;2023-04-24T00:55:31;6.43;;;2.45;;
20118;SDS011;10220;42.716;23.306;2023-04-24T00:57:57;3.10;;;2.15;;
20118;SDS011;10220;42.716;23.306;2023-04-24T01:00:23;3.15;;;1.90;;
20118;SDS011;10220;42.716;23.306;2023-04-24T01:02:49;2.28;;;1.70;;
20118;SDS011;10220;42.716;23.306;2023-04-24T01:05:16;2.22;;;1.75;;
20118;SDS011;10220;42.716;23.306;2023-04-24T01:07:43;6.13;;;2.40;;
20118;SDS011;10220;42.716;23.306;2023-04-24T01:10:10;2.17;;;1.98;;
20118;SDS011;10220;42.716;23.306;2023-04-24T01:12:38;3.08;;;2.40;;
20118;SDS011;10220;42.716;23.306;2023-04-24T01:15:06;3.38;;;2.15;;
20118;SDS011;10220;42.716;23.306;2023-04-24T01:17:32;3.35;;;2.40;;
20118;SDS011;10220;42.716;23.306;2023-04-24T01:19:59;3.55;;;2.38;;
20118;SDS011;10220;42.716;23.306;2023-04-24T01:22:25;6.88;;;2.47;;
20118;SDS011;10220;42.716;23.306;2023-04-24T01:24:51;3.85;;;2.55;;
20118;SDS011;10220;42.716;23.306;2023-04-24T01:27:18;2.60;;;2.10;;
20118;SDS011;10220;42.716;23.306;2023-04-24T01:29:44;4.60;;;2.92;;
20118;SDS011;10220;42.716;23.306;2023-04-24T01:32:10;3.47;;;2.42;;
20118;SDS011;10220;42.716;23.306;2023-04-24T01:34:36;4.10;;;2.50;;
20118;SDS011;10220;42.716;23.306;2023-04-24T01:37:02;7.75;;;2.28;;
20118;SDS011;10220;42.716;23.306;2023-04-24T01:39:27;3.40;;;2.60;;
20118;SDS011;10220;42.716;23.306;2023-04-24T01:41:53;3.50;;;2.20;;
20118;SDS011;10220;42.716;23.306;2023-04-24T01:44:22;5.80;;;2.10;;
20118;SDS011;10220;42.716;23.306;2023-04-24T01:46:48;4.53;;;2.45;;
20118;SDS011;10220;42.716;23.306;2023-04-24T01:49:16;3.50;;;2.42;;
20118;SDS011;10220;42.716;23.306;2023-04-24T01:51:41;3.53;;;2.53;;
20118;SDS011;10220;42.716;23.306;2023-04-24T01:54:07;6.80;;;2.70;;
20118;SDS011;10220;42.716;23.306;2023-04-24T01:56:35;4.30;;;2.85;;
20118;SDS011;10220;42.716;23.306;2023-04-24T01:59:05;3.75;;;2.85;;
20118;SDS011;10220;42.716;23.306;2023-04-24T02:01:35;3.13;;;2.47;;
20118;SDS011;10220;42.716;23.306;2023-04-24T02:04:02;5.38;;;3.08;;
20118;SDS011;10220;42.716;23.306;2023-04-24T02:06:28;3.28;;;2.60;;
20118;SDS011;10220;42.716;23.306;2023-04-24T02:08:56;2.65;;;2.13;;
20118;SDS011;10220;42.716;23.306;2023-04-24T02:11:21;6.55;;;2.63;;
20118;SDS011;10220;42.716;23.306;2023-04-24T02:13:47;5.07;;;2.65;;
20118;SDS011;10220;42.716;23.306;2023-04-24T02:16:12;3.60;;;2.67;;
20118;SDS011;10220;42.716;23.306;2023-04-24T02:18:38;2.90;;;2.63;;
20118;SDS011;10220;42.716;23.306;2023-04-24T02:21:03;3.78;;;3.05;;
20118;SDS011;10220;42.716;23.306;2023-04-24T02:23:28;6.38;;;3.53;;
20118;SDS011;10220;42.716;23.306;2023-04-24T02:25:54;3.92;;;3.28;;
20118;SDS011;10220;42.716;23.306;2023-04-24T02:28:20;7.55;;;3.85;;
20118;SDS011;10220;42.716;23.306;2023-04-24T02:30:49;5.80;;;3.75;;
20118;SDS011;10220;42.716;23.306;2023-04-24T02:33:15;12.20;;;4.95;;
20118;SDS011;10220;42.716;23.306;2023-04-24T02:35:41;3.95;;;3.05;;
20118;SDS011;10220;42.716;23.306;2023-04-24T02:38:06;8.20;;;4.65;;
20118;SDS011;10220;42.716;23.306;2023-04-24T02:40:31;4.63;;;3.28;;
20118;SDS011;10220;42.716;23.306;2023-04-24T02:42:57;4.97;;;4.07;;
20118;SDS011;10220;42.716;23.306;2023-04-24T02:45:22;5.13;;;3.63;;
20118;SDS011;10220;42.716;23.306;2023-04-24T02:47:48;8.23;;;4.50;;
20118;SDS011;10220;42.716;23.306;2023-04-24T02:50:13;6.60;;;3.63;;
20118;SDS011;10220;42.716;23.306;2023-04-24T02:52:41;11.40;;;4.57;;
20118;SDS011;10220;42.716;23.306;2023-04-24T02:55:06;8.10;;;4.38;;
20118;SDS011;10220;42.716;23.306;2023-04-24T02:57:34;5.53;;;4.18;;
20118;SDS011;10220;42.716;23.306;2023-04-24T03:00:00;12.38;;;5.88;;
20118;SDS011;10220;42.716;23.306;2023-04-24T03:02:25;10.25;;;6.07;;
20118;SDS011;10220;42.716;23.306;2023-04-24T03:04:54;8.20;;;5.15;;
20118;SDS011;10220;42.716;23.306;2023-04-24T03:07:20;9.73;;;4.88;;
20118;SDS011;10220;42.716;23.306;2023-04-24T03:09:45;9.73;;;4.85;;
20118;SDS011;10220;42.716;23.306;2023-04-24T03:12:14;10.98;;;4.93;;
20118;SDS011;10220;42.716;23.306;2023-04-24T03:14:42;5.47;;;3.83;;
20118;SDS011;10220;42.716;23.306;2023-04-24T03:17:10;6.15;;;4.05;;
20118;SDS011;10220;42.716;23.306;2023-04-24T03:19:35;6.53;;;4.10;;
20118;SDS011;10220;42.716;23.306;2023-04-24T03:22:03;11.80;;;4.70;;
20118;SDS011;10220;42.716;23.306;2023-04-24T03:24:29;6.18;;;4.63;;
20118;SDS011;10220;42.716;23.306;2023-04-24T03:26:55;8.50;;;4.55;;
20118;SDS011;10220;42.716;23.306;2023-04-24T03:29:21;8.57;;;4.53;;
20118;SDS011;10220;42.716;23.306;2023-04-24T03:31:47;15.02;;;7.10;;
20118;SDS011;10220;42.716;23.306;2023-04-24T03:34:12;18.95;;;8.63;;
20118;SDS011;10220;42.716;23.306;2023-04-24T03:36:40;26.02;;;9.77;;
20118;SDS011;10220;42.716;23.306;2023-04-24T03:39:05;17.80;;;9.90;;
20118;SDS011;10220;42.716;23.306;2023-04-24T03:41:33;17.75;;;9.98;;
20118;SDS011;10220;42.716;23.306;2023-04-24T03:43:59;15.95;;;8.32;;
20118;SDS011;10220;42.716;23.306;2023-04-24T03:46:25;20.30;;;7.70;;
20118;SDS011;10220;42.716;23.306;2023-04-24T03:48:50;13.40;;;8.50;;
20118;SDS011;10220;42.716;23.306;2023-04-24T03:51:16;22.15;;;12.45;;
20118;SDS011;10220;42.716;23.306;2023-04-24T03:53:41;13.60;;;7.20;;
20118;SDS011;10220;42.716;23.306;2023-04-24T03:56:06;14.70;;;7.05;;
20118;SDS011;10220;42.716;23.306;2023-04-24T03:58:32;26.20;;;11.95;;
20118;SDS011;10220;42.716;23.306;2023-04-24T04:00:57;23.40;;;13.88;;
20118;SDS011;10220;42.716;23.306;2023-04-24T04:03:23;15.82;;;7.13;;
20118;SDS011;10220;42.716;23.306;2023-04-24T04:05:50;20.80;;;9.30;;
20118;SDS011;10220;42.716;23.306;2023-04-24T04:08:15;18.75;;;8.48;;
20118;SDS011;10220;42.716;23.306;2023-04-24T04:10:41;16.50;;;9.48;;
20118;SDS011;10220;42.716;23.306;2023-04-24T04:13:06;19.35;;;10.73;;
20118;SDS011;10220;42.716;23.306;2023-04-24T04:15:32;20.60;;;8.50;;
20118;SDS011;10220;42.716;23.306;2023-04-24T04:17:57;25.10;;;12.48;;
20118;SDS011;10220;42.716;23.306;2023-04-24T04:20:25;15.02;;;7.57;;
20118;SDS011;10220;42.716;23.306;2023-04-24T04:22:50;5.95;;;4.18;;
20118;SDS011;10220;42.716;23.306;2023-04-24T04:25:16;13.43;;;6.68;;
20118;SDS011;10220;42.716;23.306;2023-04-24T04:27:44;15.38;;;7.53;;
20118;SDS011;10220;42.716;23.306;2023-04-24T04:30:13;33.78;;;15.52;;
20118;SDS011;10220;42.716;23.306;2023-04-24T04:32:39;20.88;;;11.10;;
20118;SDS011;10220;42.716;23.306;2023-04-24T04:35:07;33.83;;;16.70;;
20118;SDS011;10220;42.716;23.306;2023-04-24T04:37:32;20.50;;;12.13;;
20118;SDS011;10220;42.716;23.306;2023-04-24T04:39:59;31.60;;;17.50;;
20118;SDS011;10220;42.716;23.306;2023-04-24T04:42:28;12.65;;;7.00;;
20118;SDS011;10220;42.716;23.306;2023-04-24T04:44:53;31.27;;;16.17;;
20118;SDS011;10220;42.716;23.306;2023-04-24T04:47:20;27.33;;;15.98;;
20118;SDS011;10220;42.716;23.306;2023-04-24T04:49:49;17.75;;;9.60;;
20118;SDS011;10220;42.716;23.306;2023-04-24T04:52:22;41.08;;;22.17;;
20118;SDS011;10220;42.716;23.306;2023-04-24T04:54:50;18.17;;;11.18;;
20118;SDS011;10220;42.716;23.306;2023-04-24T04:57:18;28.70;;;12.70;;
20118;SDS011;10220;42.716;23.306;2023-04-24T04:59:43;12.02;;;7.93;;
20118;SDS011;10220;42.716;23.306;2023-04-24T05:02:08;16.02;;;9.18;;
20118;SDS011;10220;42.716;23.306;2023-04-24T05:04:34;18.05;;;10.02;;
20118;SDS011;10220;42.716;23.306;2023-04-24T05:06:59;35.65;;;16.35;;
20118;SDS011;10220;42.716;23.306;2023-04-24T05:09:25;32.72;;;14.88;;
20118;SDS011;10220;42.716;23.306;2023-04-24T05:11:52;23.63;;;13.20;;
20118;SDS011;10220;42.716;23.306;2023-04-24T05:14:21;31.38;;;13.15;;
20118;SDS011;10220;42.716;23.306;2023-04-24T05:16:47;12.70;;;6.68;;
20118;SDS011;10220;42.716;23.306;2023-04-24T05:19:12;34.85;;;16.92;;
20118;SDS011;10220;42.716;23.306;2023-04-24T05:21:40;21.73;;;10.43;;
20118;SDS011;10220;42.716;23.306;2023-04-24T05:24:06;25.15;;;7.22;;
20118;SDS011;10220;42.716;23.306;2023-04-24T05:26:32;12.60;;;6.13;;
20118;SDS011;10220;42.716;23.306;2023-04-24T05:29:00;20.63;;;11.00;;
20118;SDS011;10220;42.716;23.306;2023-04-24T05:31:27;8.93;;;5.50;;
20118;SDS011;10220;42.716;23.306;2023-04-24T05:33:55;13.60;;;6.03;;
20118;SDS011;10220;42.716;23.306;2023-04-24T05:36:23;21.58;;;12.02;;
20118;SDS011;10220;42.716;23.306;2023-04-24T05:38:48;26.98;;;15.38;;
20118;SDS011;10220;42.716;23.306;2023-04-24T05:41:14;32.03;;;15.80;;
20118;SDS011;10220;42.716;23.306;2023-04-24T05:43:40;31.20;;;14.48;;
20118;SDS011;10220;42.716;23.306;2023-04-24T05:46:08;11.90;;;7.95;;
20118;SDS011;10220;42.716;23.306;2023-04-24T05:48:36;17.48;;;7.18;;
20118;SDS011;10220;42.716;23.306;2023-04-24T05:51:04;6.45;;;4.13;;
20118;SDS011;10220;42.716;23.306;2023-04-24T05:53:39;8.95;;;4.20;;
20118;SDS011;10220;42.716;23.306;2023-04-24T06:03:48;7.32;;;4.10;;
20118;SDS011;10220;42.716;23.306;2023-04-24T06:06:20;7.10;;;3.60;;
20118;SDS011;10220;42.716;23.306;2023-04-24T06:08:46;6.03;;;3.28;;
20118;SDS011;10220;42.716;23.306;2023-04-24T06:11:14;7.82;;;3.60;;
20118;SDS011;10220;42.716;23.306;2023-04-24T06:13:39;5.20;;;3.38;;
20118;SDS011;10220;42.716;23.306;2023-04-24T06:16:10;14.40;;;6.32;;
20118;SDS011;10220;42.716;23.306;2023-04-24T06:18:37;7.72;;;5.30;;
20118;SDS011;10220;42.716;23.306;2023-04-24T06:21:03;5.28;;;3.17;;
20118;SDS011;10220;42.716;23.306;2023-04-24T06:23:28;7.22;;;3.78;;
20118;SDS011;10220;42.716;23.306;2023-04-24T06:25:54;3.58;;;3.25;;
20118;SDS011;10220;42.716;23.306;2023-04-24T06:28:19;4.68;;;3.28;;
20118;SDS011;10220;42.716;23.306;2023-04-24T06:30:45;6.82;;;3.42;;
20118;SDS011;10220;42.716;23.306;2023-04-24T06:33:10;8.25;;;3.58;;
20118;SDS011;10220;42.716;23.306;2023-04-24T06:35:38;12.20;;;3.83;;
20118;SDS011;10220;42.716;23.306;2023-04-24T06:38:04;5.60;;;3.65;;
20118;SDS011;10220;42.716;23.306;2023-04-24T06:40:29;4.88;;;3.25;;
20118;SDS011;10220;42.716;23.306;2023-04-24T06:43:10;4.75;;;3.65;;
20118;SDS011;10220;42.716;23.306;2023-04-24T06:45:45;9.60;;;4.55;;
20118;SDS011;10220;42.716;23.306;2023-04-24T06:48:16;13.52;;;3.47;;
20118;SDS011;10220;42.716;23.306;2023-04-24T06:50:44;8.80;;;3.65;;
20118;SDS011;10220;42.716;23.306;2023-04-24T06:53:10;7.55;;;4.03;;
20118;SDS011;10220;42.716;23.306;2023-04-24T06:55:39;5.57;;;4.10;;
20118;SDS011;10220;42.716;23.306;2023-04-24T06:58:09;6.25;;;3.83;;
20118;SDS011;10220;42.716;23.306;2023-04-24T07:00:35;3.92;;;3.22;;
20118;SDS011;10220;42.716;23.306;2023-04-24T07:03:03;9.13;;;3.60;;
20118;SDS011;10220;42.716;23.306;2023-04-24T07:05:34;5.38;;;3.10;;
20118;SDS011;10220;42.716;23.306;2023-04-24T07:08:03;7.93;;;4.50;;
20118;SDS011;10220;42.716;23.306;2023-04-24T07:10:38;5.50;;;3.80;;
20118;SDS011;10220;42.716;23.306;2023-04-24T07:13:07;5.45;;;3.75;;
20118;SDS011;10220;42.716;23.306;2023-04-24T07:15:42;3.67;;;2.95;;
20118;SDS011;10220;42.716;23.306;2023-04-24T07:18:11;8.13;;;4.43;;
20118;SDS011;10220;42.716;23.306;2023-04-24T07:20:40;5.55;;;3.30;;
20118;SDS011;10220;42.716;23.306;2023-04-24T07:23:11;6.65;;;4.30;;
20118;SDS011;10220;42.716;23.306;2023-04-24T07:25:39;9.27;;;4.00;;
20118;SDS011;10220;42.716;23.306;2023-04-24T07:28:14;5.13;;;4.15;;
20118;SDS011;10220;42.716;23.306;2023-04-24T07:30:39;7.43;;;3.83;;
20118;SDS011;10220;42.716;23.306;2023-04-24T07:33:14;7.90;;;4.05;;
20118;SDS011;10220;42.716;23.306;2023-04-24T07:35:45;6.03;;;4.55;;
20118;SDS011;10220;42.716;23.306;2023-04-24T07:38:14;5.15;;;3.53;;
20118;SDS011;10220;42.716;23.306;2023-04-24T07:40:39;4.68;;;3.50;;
20118;SDS011;10220;42.716;23.306;2023-04-24T07:43:05;7.00;;;4.38;;
20118;SDS011;10220;42.716;23.306;2023-04-24T07:45:31;8.45;;;4.60;;
20118;SDS011;10220;42.716;23.306;2023-04-24T07:47:58;8.27;;;4.22;;
20118;SDS011;10220;42.716;23.306;2023-04-24T07:50:24;7.30;;;4.32;;
20118;SDS011;10220;42.716;23.306;2023-04-24T07:52:49;10.25;;;5.68;;
20118;SDS011;10220;42.716;23.306;2023-04-24T07:55:15;5.18;;;3.72;;
20118;SDS011;10220;42.716;23.306;2023-04-24T07:57:40;8.93;;;4.93;;
20118;SDS011;10220;42.716;23.306;2023-04-24T08:00:06;11.05;;;5.63;;
20118;SDS011;10220;42.716;23.306;2023-04-24T08:02:33;10.02;;;6.03;;
20118;SDS011;10220;42.716;23.306;2023-04-24T08:04:59;12.98;;;7.43;;
20118;SDS011;10220;42.716;23.306;2023-04-24T08:07:24;4.15;;;3.35;;
20118;SDS011;10220;42.716;23.306;2023-04-24T08:09:49;8.65;;;4.93;;
20118;SDS011;10220;42.716;23.306;2023-04-24T08:12:15;6.45;;;3.45;;
20118;SDS011;10220;42.716;23.306;2023-04-24T08:14:40;9.40;;;3.75;;
20118;SDS011;10220;42.716;23.306;2023-04-24T08:17:06;3.42;;;2.85;;
20118;SDS011;10220;42.716;23.306;2023-04-24T08:19:32;9.25;;;3.20;;
20118;SDS011;10220;42.716;23.306;2023-04-24T08:21:58;9.48;;;3.28;;
20118;SDS011;10220;42.716;23.306;2023-04-24T08:24:23;6.85;;;3.67;;
20118;SDS011;10220;42.716;23.306;2023-04-24T08:26:48;3.72;;;3.10;;
20118;SDS011;10220;42.716;23.306;2023-04-24T08:29:19;3.33;;;2.75;;
20118;SDS011;10220;42.716;23.306;2023-04-24T08:31:44;6.15;;;3.05;;
20118;SDS011;10220;42.716;23.306;2023-04-24T08:34:10;6.05;;;3.25;;
20118;SDS011;10220;42.716;23.306;2023-04-24T08:36:36;3.90;;;2.88;;
20118;SDS011;10220;42.716;23.306;2023-04-24T08:39:02;3.30;;;2.67;;
20118;SDS011;10220;42.716;23.306;2023-04-24T08:41:27;4.25;;;2.80;;
20118;SDS011;10220;42.716;23.306;2023-04-24T08:43:53;5.68;;;3.28;;
20118;SDS011;10220;42.716;23.306;2023-04-24T08:46:20;4.47;;;2.75;;
20118;SDS011;10220;42.716;23.306;2023-04-24T08:48:45;7.28;;;3.42;;
20118;SDS011;10220;42.716;23.306;2023-04-24T08:51:11;5.13;;;3.50;;
20118;SDS011;10220;42.716;23.306;2023-04-24T08:53:37;7.57;;;3.58;;
20118;SDS011;10220;42.716;23.306;2023-04-24T08:56:03;5.00;;;2.83;;
20118;SDS011;10220;42.716;23.306;2023-04-24T08:58:29;6.43;;;3.72;;
20118;SDS011;10220;42.716;23.306;2023-04-24T09:00:55;3.35;;;2.95;;
20118;SDS011;10220;42.716;23.306;2023-04-24T09:03:24;6.75;;;3.38;;
20118;SDS011;10220;42.716;23.306;2023-04-24T09:05:53;5.32;;;3.45;;
20118;SDS011;10220;42.716;23.306;2023-04-24T09:08:20;10.48;;;3.60;;
20118;SDS011;10220;42.716;23.306;2023-04-24T09:10:49;10.88;;;6.72;;
20118;SDS011;10220;42.716;23.306;2023-04-24T09:13:18;7.95;;;4.25;;
20118;SDS011;10220;42.716;23.306;2023-04-24T09:15:44;6.90;;;4.80;;
20118;SDS011;10220;42.716;23.306;2023-04-24T09:18:10;4.88;;;3.70;;
20118;SDS011;10220;42.716;23.306;2023-04-24T09:20:56;6.53;;;3.08;;
20118;SDS011;10220;42.716;23.306;2023-04-24T09:23:31;3.88;;;3.30;;
20118;SDS011;10220;42.716;23.306;2023-04-24T09:25:57;4.50;;;3.20;;
20118;SDS011;10220;42.716;23.306;2023-04-24T09:28:25;3.42;;;2.67;;
20118;SDS011;10220;42.716;23.306;2023-04-24T09:33:33;4.05;;;3.00;;
20118;SDS011;10220;42.716;23.306;2023-04-24T09:35:58;6.50;;;2.92;;
20118;SDS011;10220;42.716;23.306;2023-04-24T09:38:31;3.85;;;2.72;;
20118;SDS011;10220;42.716;23.306;2023-04-24T09:41:01;3.38;;;2.60;;
20118;SDS011;10220;42.716;23.306;2023-04-24T09:43:28;7.70;;;2.80;;
20118;SDS011;10220;42.716;23.306;2023-04-24T09:45:58;2.70;;;2.50;;
20118;SDS011;10220;42.716;23.306;2023-04-24T09:48:31;4.15;;;3.03;;
20118;SDS011;10220;42.716;23.306;2023-04-24T09:50:58;6.03;;;3.42;;
20118;SDS011;10220;42.716;23.306;2023-04-24T09:53:24;5.85;;;4.25;;
20118;SDS011;10220;42.716;23.306;2023-04-24T09:55:51;3.20;;;2.80;;
20118;SDS011;10220;42.716;23.306;2023-04-24T09:58:18;6.63;;;3.50;;
20118;SDS011;10220;42.716;23.306;2023-04-24T10:00:49;3.03;;;2.72;;
20118;SDS011;10220;42.716;23.306;2023-04-24T10:03:18;6.80;;;3.50;;
20118;SDS011;10220;42.716;23.306;2023-04-24T10:05:44;4.07;;;2.97;;
20118;SDS011;10220;42.716;23.306;2023-04-24T10:08:11;3.75;;;2.97;;
20118;SDS011;10220;42.716;23.306;2023-04-24T10:10:39;4.00;;;2.70;;
20118;SDS011;10220;42.716;23.306;2023-04-24T10:13:10;6.72;;;2.88;;
20118;SDS011;10220;42.716;23.306;2023-04-24T10:15:37;3.22;;;2.47;;
20118;SDS011;10220;42.716;23.306;2023-04-24T10:18:04;9.15;;;3.28;;
20118;SDS011;10220;42.716;23.306;2023-04-24T10:20:31;4.65;;;3.38;;
20118;SDS011;10220;42.716;23.306;2023-04-24T10:22:58;4.97;;;2.78;;
20118;SDS011;10220;42.716;23.306;2023-04-24T10:25:25;3.38;;;2.95;;
20118;SDS011;10220;42.716;23.306;2023-04-24T10:27:53;3.78;;;2.63;;
20118;SDS011;10220;42.716;23.306;2023-04-24T10:30:22;3.55;;;2.63;;
20118;SDS011;10220;42.716;23.306;2023-04-24T10:32:48;5.60;;;2.65;;
20118;SDS011;10220;42.716;23.306;2023-04-24T10:35:14;6.43;;;3.58;;
20118;SDS011;10220;42.716;23.306;2023-04-24T10:37:51;5.68;;;2.92;;
20118;SDS011;10220;42.716;23.306;2023-04-24T10:40:29;6.63;;;2.63;;
20118;SDS011;10220;42.716;23.306;2023-04-24T10:43:09;3.42;;;2.85;;
20118;SDS011;10220;42.716;23.306;2023-04-24T10:45:36;5.00;;;3.08;;
20118;SDS011;10220;42.716;23.306;2023-04-24T10:48:05;5.05;;;2.72;;
20118;SDS011;10220;42.716;23.306;2023-04-24T10:53:51;2.55;;;2.17;;
20118;SDS011;10220;42.716;23.306;2023-04-24T10:56:17;2.85;;;2.40;;
20118;SDS011;10220;42.716;23.306;2023-04-24T10:58:49;2.95;;;2.53;;
20118;SDS011;10220;42.716;23.306;2023-04-24T11:01:24;3.08;;;2.40;;
20118;SDS011;10220;42.716;23.306;2023-04-24T11:04:00;4.13;;;2.75;;
20118;SDS011;10220;42.716;23.306;2023-04-24T11:06:31;4.53;;;2.33;;
20118;SDS011;10220;42.716;23.306;2023-04-24T11:09:03;2.67;;;2.45;;
20118;SDS011;10220;42.716;23.306;2023-04-24T11:11:31;3.58;;;2.42;;
20118;SDS011;10220;42.716;23.306;2023-04-24T11:16:33;4.20;;;2.40;;
20118;SDS011;10220;42.716;23.306;2023-04-24T11:19:18;4.45;;;2.33;;
20118;SDS011;10220;42.716;23.306;2023-04-24T11:24:38;9.48;;;2.85;;
20118;SDS011;10220;42.716;23.306;2023-04-24T11:27:18;3.22;;;2.58;;
20118;SDS011;10220;42.716;23.306;2023-04-24T11:34:59;5.25;;;2.95;;
20118;SDS011;10220;42.716;23.306;2023-04-24T11:37:41;4.95;;;3.17;;
20118;SDS011;10220;42.716;23.306;2023-04-24T11:40:09;4.43;;;2.88;;
20118;SDS011;10220;42.716;23.306;2023-04-24T11:42:36;4.38;;;2.45;;
20118;SDS011;10220;42.716;23.306;2023-04-24T11:45:14;5.63;;;3.15;;
20118;SDS011;10220;42.716;23.306;2023-04-24T11:47:41;3.90;;;2.97;;
20118;SDS011;10220;42.716;23.306;2023-04-24T11:50:08;5.05;;;3.00;;
20118;SDS011;10220;42.716;23.306;2023-04-24T11:52:36;3.45;;;2.75;;
20118;SDS011;10220;42.716;23.306;2023-04-24T11:55:03;3.20;;;2.70;;
20118;SDS011;10220;42.716;23.306;2023-04-24T11:57:29;3.42;;;2.92;;
20118;SDS011;10220;42.716;23.306;2023-04-24T11:59:59;5.57;;;2.58;;
20118;SDS011;10220;42.716;23.306;2023-04-24T12:02:25;4.82;;;2.90;;
20118;SDS011;10220;42.716;23.306;2023-04-24T12:04:52;2.85;;;2.22;;
20118;SDS011;10220;42.716;23.306;2023-04-24T12:07:21;3.92;;;2.67;;
20118;SDS011;10220;42.716;23.306;2023-04-24T12:09:57;2.90;;;2.08;;
20118;SDS011;10220;42.716;23.306;2023-04-24T12:12:25;3.33;;;2.80;;
20118;SDS011;10220;42.716;23.306;2023-04-24T12:14:53;2.85;;;1.90;;
20118;SDS011;10220;42.716;23.306;2023-04-24T12:17:26;2.20;;;2.00;;
20118;SDS011;10220;42.716;23.306;2023-04-24T12:19:56;2.67;;;2.10;;
20118;SDS011;10220;42.716;23.306;2023-04-24T12:25:15;6.30;;;2.58;;
20118;SDS011;10220;42.716;23.306;2023-04-24T12:27:42;2.70;;;2.22;;
20118;SDS011;10220;42.716;23.306;2023-04-24T12:30:13;2.38;;;2.10;;
20118;SDS011;10220;42.716;23.306;2023-04-24T12:32:45;3.40;;;2.50;;
20118;SDS011;10220;42.716;23.306;2023-04-24T12:35:12;3.38;;;2.13;;
20118;SDS011;10220;42.716;23.306;2023-04-24T12:37:41;2.63;;;2.22;;
20118;SDS011;10220;42.716;23.306;2023-04-24T12:40:09;2.30;;;2.10;;
20118;SDS011;10220;42.716;23.306;2023-04-24T12:42:41;6.28;;;2.70;;
20118;SDS011;10220;42.716;23.306;2023-04-24T12:45:08;3.42;;;2.30;;
20118;SDS011;10220;42.716;23.306;2023-04-24T12:47:34;2.95;;;2.20;;
20118;SDS011;10220;42.716;23.306;2023-04-24T12:50:01;3.00;;;2.42;;
20118;SDS011;10220;42.716;23.306;2023-04-24T12:52:28;3.15;;;2.33;;
20118;SDS011;10220;42.716;23.306;2023-04-24T12:54:58;2.58;;;2.03;;
20118;SDS011;10220;42.716;23.306;2023-04-24T12:57:26;5.93;;;2.10;;
20118;SDS011;10220;42.716;23.306;2023-04-24T12:59:56;3.20;;;2.30;;
20118;SDS011;10220;42.716;23.306;2023-04-24T13:02:23;4.32;;;2.38;;
20118;SDS011;10220;42.716;23.306;2023-04-24T13:04:50;2.75;;;2.53;;
20118;SDS011;10220;42.716;23.306;2023-04-24T13:07:16;3.70;;;2.28;;
20118;SDS011;10220;42.716;23.306;2023-04-24T13:09:42;3.63;;;2.38;;
20118;SDS011;10220;42.716;23.306;2023-04-24T13:12:09;4.30;;;2.13;;
20118;SDS011;10220;42.716;23.306;2023-04-24T13:14:35;3.50;;;2.50;;
20118;SDS011;10220;42.716;23.306;2023-04-24T13:17:01;3.38;;;2.40;;
20118;SDS011;10220;42.716;23.306;2023-04-24T13:19:27;3.47;;;2.67;;
20118;SDS011;10220;42.716;23.306;2023-04-24T13:21:56;3.75;;;2.90;;
20118;SDS011;10220;42.716;23.306;2023-04-24T13:24:25;3.33;;;2.80;;
20118;SDS011;10220;42.716;23.306;2023-04-24T13:26:51;3.58;;;2.83;;
20118;SDS011;10220;42.716;23.306;2023-04-24T13:29:17;2.72;;;2.22;;
20118;SDS011;10220;42.716;23.306;2023-04-24T13:31:43;4.97;;;2.60;;
20118;SDS011;10220;42.716;23.306;2023-04-24T13:34:08;6.60;;;2.30;;
20118;SDS011;10220;42.716;23.306;2023-04-24T13:36:34;2.67;;;2.10;;
20118;SDS011;10220;42.716;23.306;2023-04-24T13:39:00;2.08;;;1.85;;
20118;SDS011;10220;42.716;23.306;2023-04-24T13:41:25;2.38;;;2.17;;
20118;SDS011;10220;42.716;23.306;2023-04-24T13:43:51;3.45;;;2.50;;
20118;SDS011;10220;42.716;23.306;2023-04-24T13:46:16;2.28;;;2.05;;
20118;SDS011;10220;42.716;23.306;2023-04-24T13:48:42;3.78;;;2.28;;
20118;SDS011;10220;42.716;23.306;2023-04-24T13:51:07;6.35;;;2.30;;
20118;SDS011;10220;42.716;23.306;2023-04-24T13:53:33;2.58;;;2.30;;
20118;SDS011;10220;42.716;23.306;2023-04-24T13:56:01;4.05;;;2.20;;
20118;SDS011;10220;42.716;23.306;2023-04-24T13:58:27;3.53;;;2.10;;
20118;SDS011;10220;42.716;23.306;2023-04-24T14:00:52;4.25;;;2.08;;
20118;SDS011;10220;42.716;23.306;2023-04-24T14:03:21;5.03;;;2.40;;
20118;SDS011;10220;42.716;23.306;2023-04-24T14:09:01;4.13;;;2.22;;
20118;SDS011;10220;42.716;23.306;2023-04-24T14:11:29;4.70;;;2.08;;
20118;SDS011;10220;42.716;23.306;2023-04-24T14:13:55;3.50;;;2.38;;
20118;SDS011;10220;42.716;23.306;2023-04-24T14:16:21;4.95;;;2.00;;
20118;SDS011;10220;42.716;23.306;2023-04-24T14:18:47;4.10;;;2.40;;
20118;SDS011;10220;42.716;23.306;2023-04-24T14:21:12;3.08;;;1.90;;
20118;SDS011;10220;42.716;23.306;2023-04-24T14:23:38;2.28;;;1.88;;
20118;SDS011;10220;42.716;23.306;2023-04-24T14:26:03;3.42;;;2.00;;
20118;SDS011;10220;42.716;23.306;2023-04-24T14:28:28;2.20;;;2.00;;
20118;SDS011;10220;42.716;23.306;2023-04-24T14:30:54;3.47;;;2.33;;
20118;SDS011;10220;42.716;23.306;2023-04-24T14:33:19;2.70;;;2.10;;
20118;SDS011;10220;42.716;23.306;2023-04-24T14:35:45;6.15;;;1.90;;
20118;SDS011;10220;42.716;23.306;2023-04-24T14:38:11;1.63;;;1.52;;
20118;SDS011;10220;42.716;23.306;2023-04-24T14:40:36;2.30;;;1.90;;
20118;SDS011;10220;42.716;23.306;2023-04-24T14:43:02;2.33;;;2.05;;
20118;SDS011;10220;42.716;23.306;2023-04-24T14:45:28;2.70;;;2.28;;
20118;SDS011;10220;42.716;23.306;2023-04-24T14:47:54;2.70;;;2.17;;
20118;SDS011;10220;42.716;23.306;2023-04-24T14:50:20;6.47;;;2.10;;
20118;SDS011;10220;42.716;23.306;2023-04-24T14:52:46;2.70;;;2.25;;
20118;SDS011;10220;42.716;23.306;2023-04-24T14:55:11;2.10;;;1.90;;
20118;SDS011;10220;42.716;23.306;2023-04-24T14:57:37;4.60;;;2.03;;
20118;SDS011;10220;42.716;23.306;2023-04-24T15:00:03;3.90;;;1.70;;
20118;SDS011;10220;42.716;23.306;2023-04-24T15:02:32;4.15;;;2.20;;